createdAt,value
2022-07-25T00:01:37.216Z,100970.38
2022-07-25T00:06:36.007Z,100982.63
2022-07-25T00:11:34.317Z,100938.28
2022-07-25T00:16:33.201Z,100933.28
2022-07-25T00:21:34.538Z,100932.44
2022-07-25T00:26:39.725Z,100891.31
2022-07-25T00:32:07.822Z,100946.03
2022-07-25T00:37:07.906Z,100911.69
2022-07-25T00:42:05.528Z,100911.53
2022-07-25T00:47:04.424Z,100929.19
2022-07-25T00:52:05.706Z,100964.16
2022-07-25T00:57:04.422Z,100952.88
2022-07-25T01:02:04.121Z,100978.03
2022-07-25T01:07:02.634Z,100991.84
2022-07-25T01:12:01.109Z,100974.91
2022-07-25T01:16:59.812Z,100955.72
2022-07-25T01:22:03.436Z,100967.97
2022-07-25T01:27:02.011Z,100993.69
2022-07-25T01:32:00.797Z,100959.44
2022-07-25T01:36:59.972Z,100962.66
2022-07-25T01:41:58.352Z,100956.53
2022-07-25T01:46:56.861Z,100933.28
2022-07-25T01:51:57.201Z,100956.09
2022-07-25T01:56:56.136Z,100963.09
2022-07-25T02:01:54.907Z,100950.88
2022-07-25T02:06:59.827Z,100974.66
2022-07-25T02:11:58.896Z,100960.22
2022-07-25T02:17:00.964Z,100974.66
2022-07-25T02:22:00.754Z,100962.94
2022-07-25T02:27:06.813Z,100958.66
2022-07-25T02:32:05.567Z,100974.72
2022-07-25T02:37:04.355Z,100976.03
2022-07-25T02:42:05.087Z,100992.69
2022-07-25T02:47:03.706Z,100965.00
2022-07-25T02:52:03.111Z,100952.47
2022-07-25T02:57:01.950Z,100970.19
2022-07-25T03:02:00.705Z,100952.81
2022-07-25T03:06:59.015Z,100977.16
2022-07-25T03:11:56.832Z,100940.88
2022-07-25T03:16:54.763Z,100965.63
2022-07-25T03:21:52.648Z,100959.66
2022-07-25T03:26:53.337Z,100942.91
2022-07-25T03:31:50.830Z,100959.75
2022-07-25T03:36:49.081Z,101001.44
2022-07-25T03:41:47.675Z,100995.16
2022-07-25T03:46:45.135Z,100985.06
2022-07-25T03:51:43.791Z,100972.16
2022-07-25T03:56:47.856Z,100991.16
2022-07-25T04:01:47.564Z,100991.50
2022-07-25T04:06:48.628Z,100995.84
2022-07-25T04:11:46.955Z,100972.78
2022-07-25T04:16:57.643Z,100982.28
2022-07-25T04:21:59.204Z,100984.78
2022-07-25T04:27:01.166Z,100998.06
2022-07-25T04:31:59.350Z,100996.59
2022-07-25T04:37:12.266Z,101018.84
2022-07-25T04:42:11.941Z,100989.53
2022-07-25T04:47:10.693Z,100994.84
2022-07-25T04:52:09.710Z,100976.09
2022-07-25T04:57:07.206Z,100993.81
2022-07-25T05:02:05.966Z,100994.97
2022-07-25T05:07:04.741Z,100990.66
2022-07-25T05:12:03.595Z,101032.09
2022-07-25T05:17:02.643Z,101030.06
2022-07-25T05:22:01.442Z,101032.25
2022-07-25T05:27:00.457Z,101037.34
2022-07-25T05:32:03.658Z,101030.31
2022-07-25T05:37:04.728Z,101018.75
2022-07-25T05:42:02.673Z,101031.59
2022-07-25T05:47:01.555Z,101048.72
2022-07-25T05:52:13.228Z,101027.25
2022-07-25T05:57:14.535Z,101042.75
2022-07-25T06:02:13.494Z,101032.31
2022-07-25T06:07:14.979Z,101026.91
2022-07-25T06:12:15.671Z,101042.00
2022-07-25T06:17:16.499Z,101025.66
2022-07-25T06:22:16.944Z,101022.63
2022-07-25T06:27:20.657Z,101050.63
2022-07-25T06:32:21.304Z,101026.97
2022-07-25T06:37:19.898Z,101041.47
2022-07-25T06:42:17.902Z,101024.09
2022-07-25T06:47:16.662Z,101037.56
2022-07-25T06:52:14.824Z,101046.53
2022-07-25T06:57:12.285Z,101024.81
2022-07-25T07:02:10.304Z,101063.59
2022-07-25T07:07:08.833Z,101076.97
2022-07-25T07:12:11.385Z,101049.81
2022-07-25T07:17:10.208Z,101029.97
2022-07-25T07:22:10.280Z,101053.72
2022-07-25T07:27:08.922Z,101033.38
2022-07-25T07:32:07.184Z,101081.53
2022-07-25T07:37:05.937Z,101073.25
2022-07-25T07:42:05.736Z,101051.28
2022-07-25T07:47:06.707Z,101067.91
2022-07-25T07:52:16.970Z,101053.56
2022-07-25T07:57:18.634Z,101054.91
2022-07-25T08:02:20.079Z,101049.03
2022-07-25T08:07:18.329Z,101076.31
2022-07-25T08:12:17.438Z,101068.19
2022-07-25T08:17:15.625Z,101044.41
2022-07-25T08:22:15.585Z,101063.06
2022-07-25T08:27:14.130Z,101052.16
2022-07-25T08:32:14.729Z,101048.84
2022-07-25T08:37:14.837Z,101039.78
2022-07-25T08:42:16.969Z,101042.28
2022-07-25T08:47:18.439Z,101036.88
2022-07-25T08:52:21.417Z,101064.72
2022-07-25T08:57:20.231Z,101031.88
2022-07-25T09:02:20.611Z,101033.28
2022-07-25T09:07:20.863Z,101032.50
2022-07-25T09:12:26.337Z,101039.13
2022-07-25T09:17:25.010Z,101010.78
2022-07-25T09:22:25.519Z,101010.50
2022-07-25T09:27:26.663Z,101025.34
2022-07-25T09:32:25.520Z,101029.75
2022-07-25T09:37:27.002Z,101010.94
2022-07-25T09:42:32.471Z,101010.72
2022-07-25T09:47:33.245Z,101016.31
2022-07-25T09:52:30.920Z,101007.66
2022-07-25T09:57:30.031Z,100994.88
2022-07-25T10:02:50.225Z,101032.91
2022-07-25T10:07:51.110Z,101001.41
2022-07-25T10:13:11.612Z,100985.06
2022-07-25T10:18:10.728Z,101001.69
2022-07-25T10:23:28.597Z,101007.19
2022-07-25T10:28:50.104Z,100982.31
2022-07-25T10:33:56.797Z,100956.66
2022-07-25T10:39:00.850Z,100972.66
2022-07-25T10:44:03.207Z,100994.16
2022-07-25T10:49:05.966Z,100977.16
2022-07-25T10:54:18.137Z,100969.78
2022-07-25T10:59:31.809Z,100965.09
2022-07-25T11:04:54.355Z,100972.56
2022-07-25T11:10:00.538Z,100967.25
2022-07-25T11:15:06.808Z,100942.50
2022-07-25T11:20:10.370Z,100926.78
2022-07-25T11:25:19.395Z,100910.59
2022-07-25T11:30:27.328Z,100926.44
2022-07-25T11:35:30.424Z,100901.78
2022-07-25T11:40:31.517Z,100928.94
2022-07-25T11:45:34.716Z,100916.13
2022-07-25T11:50:36.374Z,100920.19
2022-07-25T11:55:42.977Z,100916.50
2022-07-25T12:00:42.883Z,100897.13
2022-07-25T12:05:45.767Z,100900.66
2022-07-25T12:10:45.151Z,100879.53
2022-07-25T12:15:44.476Z,100869.53
2022-07-25T12:20:43.953Z,100898.53
2022-07-25T12:25:44.811Z,100865.75
2022-07-25T12:30:45.329Z,100869.91
2022-07-25T12:35:44.902Z,100852.34
2022-07-25T12:40:49.908Z,100836.94
2022-07-25T12:45:54.119Z,100865.78
2022-07-25T12:50:57.016Z,100840.38
2022-07-25T12:56:22.021Z,100843.75
2022-07-25T13:01:21.450Z,100840.88
2022-07-25T13:06:33.397Z,100846.47
2022-07-25T13:11:36.882Z,100804.72
2022-07-25T13:16:38.136Z,100847.53
2022-07-25T13:22:06.895Z,100810.00
2022-07-25T13:27:13.264Z,100830.06
2022-07-25T13:32:13.571Z,100806.63
2022-07-25T13:37:15.090Z,100796.22
2022-07-25T13:42:15.487Z,100817.50
2022-07-25T13:47:18.851Z,100812.13
2022-07-25T13:52:18.589Z,100801.25
2022-07-25T13:57:21.363Z,100800.72
2022-07-25T14:02:20.060Z,100784.69
2022-07-25T14:07:20.356Z,100778.78
2022-07-25T14:12:22.660Z,100771.97
2022-07-25T14:17:27.056Z,100790.41
2022-07-25T14:22:28.368Z,100784.09
2022-07-25T14:27:26.918Z,100759.41
2022-07-25T14:32:27.098Z,100755.81
2022-07-25T14:37:28.066Z,100772.69
2022-07-25T14:42:28.423Z,100751.25
2022-07-25T14:47:28.248Z,100726.75
2022-07-25T14:52:29.616Z,100723.06
2022-07-25T14:57:31.392Z,100759.09
2022-07-25T15:02:33.538Z,100718.72
2022-07-25T15:07:38.789Z,100732.47
2022-07-25T15:12:38.017Z,100728.00
2022-07-25T15:17:42.352Z,100735.88
2022-07-25T15:22:41.667Z,100720.88
2022-07-25T15:27:40.048Z,100713.03
2022-07-25T15:32:40.503Z,100712.03
2022-07-25T15:37:40.625Z,100696.25
2022-07-25T15:42:44.450Z,100712.66
2022-07-25T15:47:47.472Z,100702.94
2022-07-25T15:52:49.153Z,100710.31
2022-07-25T15:57:48.535Z,100692.03
2022-07-25T16:02:47.861Z,100691.28
2022-07-25T16:07:47.093Z,100684.31
2022-07-25T16:12:49.184Z,100702.72
2022-07-25T16:18:02.719Z,100691.09
2022-07-25T16:23:16.127Z,100674.91
2022-07-25T16:28:15.499Z,100687.41
2022-07-25T16:33:25.244Z,100693.31
2022-07-25T16:39:18.224Z,100682.34
2022-07-25T16:44:21.714Z,100696.13
2022-07-25T16:49:30.476Z,100674.13
2022-07-25T16:54:36.726Z,100698.25
2022-07-25T16:59:37.515Z,100688.38
2022-07-25T17:04:40.168Z,100680.97
2022-07-25T17:09:58.165Z,100684.13
2022-07-25T17:15:03.242Z,100683.28
2022-07-25T17:20:08.780Z,100708.84
2022-07-25T17:25:07.249Z,100695.03
2022-07-25T17:30:05.822Z,100701.31
2022-07-25T17:35:06.536Z,100698.66
2022-07-25T17:40:05.212Z,100699.59
2022-07-25T17:45:15.643Z,100698.56
2022-07-25T17:50:17.408Z,100685.50
2022-07-25T17:55:20.315Z,100688.88
2022-07-25T18:00:27.527Z,100686.59
2022-07-25T18:05:29.299Z,100733.16
2022-07-25T18:10:36.182Z,100688.34
2022-07-25T18:15:36.877Z,100700.53
2022-07-25T18:20:40.800Z,100687.72
2022-07-25T18:25:41.059Z,100691.94
2022-07-25T18:30:42.791Z,100694.38
2022-07-25T18:36:22.325Z,100737.81
2022-07-25T18:41:29.897Z,100713.91
2022-07-25T18:46:36.436Z,100699.56
2022-07-25T18:51:58.005Z,100731.88
2022-07-25T18:57:00.220Z,100724.47
2022-07-25T19:01:59.855Z,100708.22
2022-07-25T19:06:59.163Z,100734.31
2022-07-25T19:12:05.429Z,100725.03
2022-07-25T19:17:19.064Z,100727.97
2022-07-25T19:22:23.301Z,100757.94
2022-07-25T19:27:26.209Z,100741.00
2022-07-25T19:38:26.577Z,100713.00
2022-07-25T19:43:36.215Z,100724.75
2022-07-25T19:48:49.266Z,100699.22
2022-07-25T19:54:24.940Z,100707.38
2022-07-25T19:59:54.689Z,100754.03
2022-07-25T20:04:54.140Z,100705.75
2022-07-25T20:10:00.696Z,100712.25
2022-07-25T20:15:18.093Z,100721.28
2022-07-25T20:20:24.945Z,100720.56
2022-07-25T20:25:37.668Z,100706.34
2022-07-25T20:31:11.664Z,100748.94
2022-07-25T20:36:33.496Z,100719.69
2022-07-25T20:41:49.249Z,100758.56
2022-07-25T20:46:51.781Z,100727.69
2022-07-25T20:51:59.344Z,100718.81
2022-07-25T20:57:02.583Z,100719.94
2022-07-25T21:02:22.069Z,100747.56
2022-07-25T21:25:52.507Z,100765.75
2022-07-25T21:31:03.553Z,100767.75
2022-07-25T21:36:32.463Z,100718.47
2022-07-25T21:41:36.110Z,100714.38
2022-07-25T21:46:38.453Z,100752.66
2022-07-25T21:51:40.977Z,100723.09
2022-07-25T21:56:51.190Z,100737.63
2022-07-25T22:01:48.989Z,100709.03
2022-07-25T22:06:49.937Z,100710.16
2022-07-25T22:11:50.939Z,100724.69
2022-07-25T22:16:53.402Z,100721.53
2022-07-25T22:21:57.925Z,100692.59
2022-07-25T22:27:03.013Z,100704.31
2022-07-25T22:32:04.212Z,100716.06
2022-07-25T22:37:06.144Z,100703.09
2022-07-25T22:42:17.236Z,100712.88
2022-07-25T22:47:18.269Z,100713.28
2022-07-25T22:52:17.158Z,100705.91
2022-07-25T22:57:18.239Z,100692.56
2022-07-25T23:02:23.322Z,100706.56
2022-07-25T23:07:22.475Z,100692.47
2022-07-25T23:12:22.470Z,100701.94
2022-07-25T23:17:32.123Z,100691.53
2022-07-25T23:22:33.518Z,100675.16
2022-07-25T23:27:36.189Z,100678.13
2022-07-25T23:32:44.313Z,100676.25
2022-07-25T23:37:46.688Z,100673.41
2022-07-25T23:42:45.739Z,100689.59
2022-07-25T23:47:51.674Z,100668.53
2022-07-25T23:53:02.199Z,100671.09
2022-07-25T23:58:04.191Z,100702.94
